Airfield :
LOGIN :

Register | Disclaimer

   EN    FR    IT 

 










Legend :    VFR   Marginal VFR   IFR   Intensive IFR   Very Intensive IFR
Visi :
Ceiling :
>= 8 km
>= 3000ft
5 to 8 km
1000 to 3000 ft
1500m to 5 km
500 to 1000 ft
800 to 1500m
200 to 500 ft
< 800m
< 200 ft
Symbols :   Thunderstorms  Fog  Heavy snow  Heavy precipitations  Wind > 20 kt
SIGMETs :     Misc.  Thunderstorms  Icing  Turbulence  Mountain Waves  Volcanic Ashes







- Airport Elevation : 1470 ft
- IATA code : KLU


LOWK - Klagenfurt

CURRENT METAR :
  • 230550Z 30004KT CAVOK 00/M01 Q1030 NOSIG

EXPIRED METARs :
  • 230520Z AUTO 30003KT 9999 NSC M01/M02 Q1030 NOSIG
  • 230450Z AUTO 31004KT 9999 NSC M00/M02 Q1029 NOSIG
  • 230420Z AUTO 32004KT 9999 NSC M00/M02 Q1029
  • 230350Z AUTO 31003KT 9999 NSC M00/M02 Q1029
  • 230320Z AUTO 31004KT 9999 NSC 00/M02 Q1029

TAF TAF LOWK
Valid from the 23 at 06:00 until the 24 at 06:00 UTC


230515Z 2306/2406 VRB02KT CAVOK TX20/2315Z TN00/2306Z
TEMPO 2310/2316 07005KT
No reported NOTAMs for that airfield.



MET'MAP, your aeronautical weather chart ! - Copyright ORBIFLY December 2007 - Disclaimer

ORBIFLY MET'MAP TEAM :

Programming & Development : Alexandra Zaïnal
Concept & Development : Baudouin d'Aumeries
Co-Development & Prog : Marc-Olivier Méhu
Technical & hardware support : Manuel Goepfert

Contact : metmap@orbifly.com




SOURCES & CREDITS :

   NOAA